Time,TemperatureF,DewpointF,PressureIn,WindDirection,WindDirectionDegrees,WindSpeedMPH,WindSpeedGustMPH,Humidity,HourlyPrecipIn,Conditions,Clouds,dailyrainin,SoftwareType,DateUTC
2013-06-13 00:13:00,58.5,39.9,30.08,ENE,64,3.0,8.0,50,0.00,CLR,,0.00,WeatherDisplay:10.37,2013-06-13 08:13:00,
2013-06-13 00:28:00,57.9,39.8,30.09,ENE,63,3.0,7.0,51,0.00,CLR,,0.00,WeatherDisplay:10.37,2013-06-13 08:28:00,
2013-06-13 00:43:00,57.3,39.8,30.09,ENE,69,3.0,8.0,52,0.00,CLR,,0.00,WeatherDisplay:10.37,2013-06-13 08:43:00,
2013-06-13 00:58:00,56.9,39.4,30.10,ENE,60,2.0,8.0,52,0.00,CLR,,0.00,WeatherDisplay:10.37,2013-06-13 08:58:00,
2013-06-13 01:13:00,56.4,39.5,30.10,ENE,64,2.0,6.0,53,0.00,CLR,,0.00,WeatherDisplay:10.37,2013-06-13 09:13:00,
2013-06-13 01:28:00,55.8,39.9,30.10,ENE,60,2.0,6.0,55,0.00,CLR,,0.00,WeatherDisplay:10.37,2013-06-13 09:28:00,
2013-06-13 01:43:00,55.3,39.9,30.10,ENE,57,2.0,5.0,56,0.00,CLR,,0.00,WeatherDisplay:10.37,2013-06-13 09:43:00,
2013-06-13 01:58:00,54.9,39.9,30.10,NE,56,3.0,6.0,57,0.00,CLR,,0.00,WeatherDisplay:10.37,2013-06-13 09:58:00,
2013-06-13 02:13:00,54.5,40.0,30.10,ENE,62,3.0,7.0,58,0.00,CLR,,0.00,WeatherDisplay:10.37,2013-06-13 10:13:00,
2013-06-13 02:28:00,54.2,39.7,30.10,ENE,60,3.0,6.0,58,0.00,CLR,,0.00,WeatherDisplay:10.37,2013-06-13 10:28:00,
2013-06-13 02:43:00,54.1,40.1,30.11,ENE,60,2.0,6.0,59,0.00,CLR,,0.00,WeatherDisplay:10.37,2013-06-13 10:43:00,
2013-06-13 02:58:00,53.9,40.3,30.11,ENE,57,1.0,6.0,60,0.00,CLR,,0.00,WeatherDisplay:10.37,2013-06-13 10:58:00,
2013-06-13 03:13:00,53.7,40.1,30.11,ENE,62,3.0,6.0,60,0.00,CLR,,0.00,WeatherDisplay:10.37,2013-06-13 11:13:00,
2013-06-13 03:28:00,53.7,40.1,30.11,NE,54,2.0,6.0,60,0.00,CLR,,0.00,WeatherDisplay:10.37,2013-06-13 11:28:00,
2013-06-13 03:43:00,53.1,40.0,30.11,ENE,64,3.0,6.0,61,0.00,CLR,,0.00,WeatherDisplay:10.37,2013-06-13 11:43:00,
2013-06-13 03:58:00,52.2,40.0,30.11,NE,56,2.0,5.0,63,0.00,CLR,,0.00,WeatherDisplay:10.37,2013-06-13 11:58:00,
2013-06-13 04:13:00,52.2,40.0,30.11,ENE,58,1.0,5.0,63,0.00,CLR,,0.00,WeatherDisplay:10.37,2013-06-13 12:13:00,
2013-06-13 04:28:00,52.8,40.5,30.12,ENE,60,2.0,5.0,63,0.00,CLR,,0.00,WeatherDisplay:10.37,2013-06-13 12:28:00,
2013-06-13 04:43:00,52.9,40.2,30.12,ENE,67,2.0,5.0,62,0.00,CLR,,0.00,WeatherDisplay:10.37,2013-06-13 12:43:00,
2013-06-13 04:58:00,53.0,40.3,30.12,ENE,65,2.0,5.0,62,0.00,CLR,,0.00,WeatherDisplay:10.37,2013-06-13 12:58:00,
2013-06-13 05:13:00,53.1,40.9,30.12,ENE,65,2.0,6.0,63,0.00,CLR,,0.00,WeatherDisplay:10.37,2013-06-13 13:13:00,
2013-06-13 05:28:00,53.5,40.8,30.13,ENE,60,1.0,5.0,62,0.00,CLR,,0.00,WeatherDisplay:10.37,2013-06-13 13:28:00,
2013-06-13 05:43:00,54.1,40.9,30.13,ENE,64,1.0,5.0,61,0.00,CLR,,0.00,WeatherDisplay:10.37,2013-06-13 13:43:00,
2013-06-13 05:58:00,54.3,41.6,30.13,ENE,60,0.0,4.0,62,0.00,CLR,,0.00,WeatherDisplay:10.37,2013-06-13 13:58:00,
2013-06-13 06:13:00,54.5,41.7,30.13,ENE,63,1.0,4.0,62,0.00,CLR,,0.00,WeatherDisplay:10.37,2013-06-13 14:13:00,
2013-06-13 06:28:00,54.9,41.7,30.13,ENE,61,1.0,4.0,61,0.00,CLR,,0.00,WeatherDisplay:10.37,2013-06-13 14:28:00,
2013-06-13 06:43:00,55.2,42.0,30.14,NE,55,0.0,5.0,61,0.00,CLR,,0.00,WeatherDisplay:10.37,2013-06-13 14:43:00,
2013-06-13 06:58:00,55.7,42.5,30.14,NE,50,1.0,5.0,61,0.00,CLR,,0.00,WeatherDisplay:10.37,2013-06-13 14:58:00,
2013-06-13 07:13:00,56.1,42.8,30.14,ENE,60,1.0,5.0,61,0.00,CLR,,0.00,WeatherDisplay:10.37,2013-06-13 15:13:00,
2013-06-13 07:28:00,56.8,43.5,30.14,NE,50,0.0,5.0,61,0.00,CLR,,0.00,WeatherDisplay:10.37,2013-06-13 15:28:00,
2013-06-13 07:43:00,58.0,44.1,30.14,ENE,61,1.0,6.0,60,0.00,CLR,,0.00,WeatherDisplay:10.37,2013-06-13 15:43:00,
2013-06-13 07:58:00,59.1,44.3,30.15,NE,44,1.0,5.0,58,0.00,CLR,,0.00,WeatherDisplay:10.37,2013-06-13 15:58:00,
2013-06-13 08:13:00,60.0,44.2,30.15,ENE,72,0.0,5.0,56,0.00,CLR,,0.00,WeatherDisplay:10.37,2013-06-13 16:13:00,
2013-06-13 08:28:00,60.7,43.9,30.15,ENE,62,2.0,6.0,54,0.00,CLR,,0.00,WeatherDisplay:10.37,2013-06-13 16:28:00,
2013-06-13 08:43:00,61.6,44.3,30.15,NE,46,2.0,6.0,53,0.00,CLR,,0.00,WeatherDisplay:10.37,2013-06-13 16:43:00,
2013-06-13 08:58:00,62.2,43.8,30.15,NE,45,3.0,9.0,51,0.00,CLR,,0.00,WeatherDisplay:10.37,2013-06-13 16:58:00,
2013-06-13 09:13:00,62.7,43.3,30.15,ENE,57,3.0,7.0,49,0.00,CLR,,0.00,WeatherDisplay:10.37,2013-06-13 17:13:00,
2013-06-13 09:28:00,63.3,43.8,30.15,East,82,5.0,8.0,49,0.00,CLR,,0.00,WeatherDisplay:10.37,2013-06-13 17:28:00,
2013-06-13 09:43:00,63.4,43.4,30.15,East,90,3.0,10.0,48,0.00,CLR,,0.00,WeatherDisplay:10.37,2013-06-13 17:43:00,
2013-06-13 09:58:00,63.7,43.1,30.15,NNE,31,0.0,8.0,47,0.00,CLR,,0.00,WeatherDisplay:10.37,2013-06-13 17:58:00,
2013-06-13 10:13:00,64.4,43.1,30.15,NE,35,2.0,8.0,46,0.00,CLR,,0.00,WeatherDisplay:10.37,2013-06-13 18:13:00,
2013-06-13 10:28:00,64.8,42.3,30.15,NNE,18,2.0,5.0,44,0.00,CLR,,0.00,WeatherDisplay:10.37,2013-06-13 18:28:00,
2013-06-13 10:43:00,65.2,42.7,30.15,NE,51,5.0,8.0,44,0.00,CLR,,0.00,WeatherDisplay:10.37,2013-06-13 18:43:00,
2013-06-13 10:58:00,65.8,42.1,30.15,ENE,64,2.0,8.0,42,0.00,CLR,,0.00,WeatherDisplay:10.37,2013-06-13 18:58:00,
2013-06-13 11:13:00,66.2,40.5,30.15,ENE,64,0.0,6.0,39,0.00,CLR,,0.00,WeatherDisplay:10.37,2013-06-13 19:13:00,
2013-06-13 11:28:00,66.9,41.1,30.14,NE,50,1.0,7.0,39,0.00,CLR,,0.00,WeatherDisplay:10.37,2013-06-13 19:28:00,
2013-06-13 11:43:00,67.5,41.0,30.14,East,94,2.0,8.0,38,0.00,CLR,,0.00,WeatherDisplay:10.37,2013-06-13 19:43:00,
2013-06-13 11:58:00,68.2,40.2,30.14,ENE,71,8.0,14.0,36,0.00,CLR,,0.00,WeatherDisplay:10.37,2013-06-13 19:58:00,
2013-06-13 12:13:00,68.5,40.5,30.14,ENE,77,1.0,10.0,36,0.00,CLR,,0.00,WeatherDisplay:10.37,2013-06-13 20:13:00,
2013-06-13 12:28:00,68.9,40.8,30.13,ENE,61,5.0,9.0,36,0.00,CLR,,0.00,WeatherDisplay:10.37,2013-06-13 20:28:00,
2013-06-13 12:43:00,69.5,41.4,30.13,East,86,0.0,8.0,36,0.00,CLR,,0.00,WeatherDisplay:10.37,2013-06-13 20:43:00,
2013-06-13 12:58:00,69.8,40.9,30.13,ESE,109,1.0,8.0,35,0.00,CLR,,0.00,WeatherDisplay:10.37,2013-06-13 20:58:00,
2013-06-13 13:13:00,70.2,41.2,30.12,NE,53,3.0,11.0,35,0.00,CLR,,0.00,WeatherDisplay:10.37,2013-06-13 21:13:00,
2013-06-13 13:28:00,71.4,40.8,30.11,ENE,73,3.0,12.0,33,0.00,CLR,,0.00,WeatherDisplay:10.37,2013-06-13 21:28:00,
2013-06-13 13:43:00,71.6,40.2,30.11,NE,49,3.0,10.0,32,0.00,CLR,,0.00,WeatherDisplay:10.37,2013-06-13 21:43:00,
2013-06-13 13:58:00,72.2,39.9,30.11,NE,49,3.0,10.0,31,0.00,CLR,,0.00,WeatherDisplay:10.37,2013-06-13 21:58:00,
2013-06-13 14:13:00,72.8,40.4,30.11,ENE,63,3.0,10.0,31,0.00,CLR,,0.00,WeatherDisplay:10.37,2013-06-13 22:13:00,
2013-06-13 14:28:00,73.3,39.1,30.10,NE,56,5.0,9.0,29,0.00,CLR,,0.00,WeatherDisplay:10.37,2013-06-13 22:28:00,
2013-06-13 14:43:00,73.1,38.1,30.10,NE,50,2.0,13.0,28,0.00,CLR,,0.00,WeatherDisplay:10.37,2013-06-13 22:43:00,
2013-06-13 14:58:00,73.8,39.6,30.10,ESE,119,6.0,9.0,29,0.00,CLR,,0.00,WeatherDisplay:10.37,2013-06-13 22:58:00,
2013-06-13 15:13:00,74.6,40.2,30.10,East,80,3.0,10.0,29,0.00,CLR,,0.00,WeatherDisplay:10.37,2013-06-13 23:13:00,
2013-06-13 15:28:00,75.1,39.7,30.09,ENE,74,1.0,9.0,28,0.00,CLR,,0.00,WeatherDisplay:10.37,2013-06-13 23:28:00,
2013-06-13 15:43:00,75.0,37.8,30.09,NE,43,5.0,8.0,26,0.00,CLR,,0.00,WeatherDisplay:10.37,2013-06-13 23:43:00,
2013-06-13 15:58:00,75.7,38.4,30.09,ENE,68,2.0,10.0,26,0.00,CLR,,0.00,WeatherDisplay:10.37,2013-06-13 23:58:00,
2013-06-13 16:13:00,76.5,38.1,30.08,East,101,3.0,9.0,25,0.00,CLR,,0.00,WeatherDisplay:10.37,2013-06-14 00:13:00,
2013-06-13 16:28:00,76.8,36.2,30.08,NE,44,7.0,15.0,23,0.00,CLR,,0.00,WeatherDisplay:10.37,2013-06-14 00:28:00,
2013-06-13 16:43:00,76.9,36.3,30.08,ENE,68,2.0,15.0,23,0.00,CLR,,0.00,WeatherDisplay:10.37,2013-06-14 00:43:00,
2013-06-13 16:58:00,76.9,35.1,30.07,East,81,5.0,14.0,22,0.00,CLR,,0.00,WeatherDisplay:10.37,2013-06-14 00:58:00,
2013-06-13 17:13:00,76.9,37.3,30.07,ESE,109,3.0,9.0,24,0.00,CLR,,0.00,WeatherDisplay:10.37,2013-06-14 01:13:00,
2013-06-13 17:28:00,76.9,35.1,30.07,East,101,3.0,10.0,22,0.00,CLR,,0.00,WeatherDisplay:10.37,2013-06-14 01:28:00,
2013-06-13 17:43:00,76.9,37.3,30.07,SSE,156,6.0,9.0,24,0.00,CLR,,0.00,WeatherDisplay:10.37,2013-06-14 01:43:00,
2013-06-13 17:58:00,76.9,35.1,30.06,WNW,288,1.0,8.0,22,0.00,CLR,,0.00,WeatherDisplay:10.37,2013-06-14 01:58:00,
2013-06-13 18:13:00,76.9,30.1,30.05,WNW,302,2.0,5.0,18,0.00,CLR,,0.00,WeatherDisplay:10.37,2013-06-14 02:13:00,
2013-06-13 18:43:00,76.9,31.5,30.05,ENE,59,3.0,10.0,19,0.00,CLR,,0.00,WeatherDisplay:10.37,2013-06-14 02:43:00,
2013-06-13 18:58:00,76.9,31.5,30.05,ENE,60,2.0,13.0,19,0.00,CLR,,0.00,WeatherDisplay:10.37,2013-06-14 02:58:00,
2013-06-13 19:13:00,76.9,30.1,30.04,NE,55,2.0,8.0,18,0.00,CLR,,0.00,WeatherDisplay:10.37,2013-06-14 03:13:00,
2013-06-13 19:28:00,76.9,28.7,30.04,NNE,25,1.0,5.0,17,0.00,CLR,,0.00,WeatherDisplay:10.37,2013-06-14 03:28:00,
2013-06-13 19:43:00,76.9,30.1,30.04,ENE,59,2.0,5.0,18,0.00,CLR,,0.00,WeatherDisplay:10.37,2013-06-14 03:43:00,
2013-06-13 19:58:00,76.9,30.1,30.04,ENE,66,1.0,6.0,18,0.00,CLR,,0.00,WeatherDisplay:10.37,2013-06-14 03:58:00,
2013-06-13 20:13:00,76.9,28.7,30.04,NE,51,1.0,7.0,17,0.00,CLR,,0.00,WeatherDisplay:10.37,2013-06-14 04:13:00,
2013-06-13 20:28:00,76.9,28.7,30.03,NE,53,3.0,7.0,17,0.00,CLR,,0.00,WeatherDisplay:10.37,2013-06-14 04:28:00,
2013-06-13 20:43:00,76.9,30.1,30.04,ENE,59,3.0,7.0,18,0.00,CLR,,0.00,WeatherDisplay:10.37,2013-06-14 04:43:00,
2013-06-13 20:58:00,76.9,31.5,30.04,ENE,59,1.0,5.0,19,0.00,CLR,,0.00,WeatherDisplay:10.37,2013-06-14 04:58:00,
2013-06-13 21:13:00,76.9,31.5,30.04,NE,53,0.0,9.0,19,0.00,CLR,,0.00,WeatherDisplay:10.37,2013-06-14 05:13:00,
2013-06-13 21:28:00,76.9,32.8,30.04,NE,48,1.0,5.0,20,0.00,CLR,,0.00,WeatherDisplay:10.37,2013-06-14 05:28:00,
2013-06-13 21:43:00,76.4,34.7,30.04,NE,50,3.0,6.0,22,0.00,CLR,,0.00,WeatherDisplay:10.37,2013-06-14 05:43:00,
2013-06-13 21:58:00,74.1,35.0,30.04,NE,50,2.0,5.0,24,0.00,CLR,,0.00,WeatherDisplay:10.37,2013-06-14 05:58:00,
2013-06-13 22:13:00,72.6,35.7,30.04,NE,54,2.0,7.0,26,0.00,CLR,,0.00,WeatherDisplay:10.37,2013-06-14 06:13:00,
2013-06-13 22:28:00,71.7,36.8,30.05,NE,44,0.0,5.0,28,0.00,CLR,,0.00,WeatherDisplay:10.37,2013-06-14 06:28:00,
2013-06-13 22:43:00,71.4,37.5,30.05,NE,54,2.0,5.0,29,0.00,CLR,,0.00,WeatherDisplay:10.37,2013-06-14 06:43:00,
2013-06-13 22:58:00,70.8,37.8,30.05,ENE,61,2.0,6.0,30,0.00,CLR,,0.00,WeatherDisplay:10.37,2013-06-14 06:58:00,
2013-06-13 23:13:00,69.7,38.5,30.06,ENE,67,2.0,7.0,32,0.00,CLR,,0.00,WeatherDisplay:10.37,2013-06-14 07:13:00,
2013-06-13 23:28:00,68.4,38.9,30.06,NE,54,2.0,8.0,34,0.00,CLR,,0.00,WeatherDisplay:10.37,2013-06-14 07:28:00,
2013-06-13 23:43:00,67.2,39.3,30.07,NE,48,1.0,5.0,36,0.00,CLR,,0.00,WeatherDisplay:10.37,2013-06-14 07:43:00,
2013-06-13 23:58:00,65.8,40.1,30.07,NE,54,3.0,7.0,39,0.00,CLR,,0.00,WeatherDisplay:10.37,2013-06-14 07:58:00,